KMFR/MFR METAR and TAF weather

Enter ICAO airport designator
Station Type Date Time Source
KMFR METAR 2024/04/18 06:53 UTC NOAA

KMFR 180653Z AUTO 23004KT 10SM CLR 09/03 A3012 RMK AO2 SLP202 T00890028


Station Type Date Time Source
KMFR Decoded METAR 2024/04/18 06:53 UTC NOAA

ROGUE VALLEY INTERNATIONAL AIRPORT, OR, United States (KMFR) 42-23N 122-53W 396M
Apr 18, 2024 - 02:53 AM EDT / 2024.04.18 0653 UTC
Wind: from the SW (230 degrees) at 5 MPH (4 KT):0
Visibility: 10 mile(s):0
Sky conditions: clear
Temperature: 48.0 F (8.9 C)
Dew Point: 37.0 F (2.8 C)
Relative Humidity: 65%
Pressure (altimeter): 30.12 in. Hg (1019 hPa)
ob: KMFR 180653Z AUTO 23004KT 10SM CLR 09/03 A3012 RMK AO2 SLP202 T00890028
cycle: 7

Station Type Date Time Source
KMFR TAF 2024/04/18 06:51 UTC NOAA